Time;durP1;ratioP1;P1;durP2;ratioP2;P2;SDS_P1;SDS_P2;PMS_P1;PMS_P2;Temp;Humidity;BMP_temperature;BMP_pressure;BME280_temperature;BME280_humidity;BME280_pressure;Samples;Min_cycle;Max_cycle;Signal;HPM_P1;HPM_P2
2022/12/17 13:08:07;;;;;;;31.85;13.95;;;2.40;99.90;;;;;;5082819;28;20045;-82
2022/12/17 13:10:34;;;;;;;34.72;14.18;;;2.50;99.90;;;;;;5070503;28;20040;-82
2022/12/17 13:13:16;;;;;;;28.63;12.48;;;2.60;99.90;;;;;;5082229;28;20123;-84
2022/12/17 13:15:54;;;;;;;32.45;13.70;;;2.80;99.90;;;;;;5076311;28;20044;-85
2022/12/17 13:18:31;;;;;;;27.55;13.85;;;3.60;99.90;;;;;;5086122;28;20048;-82
2022/12/17 13:21:01;;;;;;;29.38;13.27;;;2.90;99.90;;;;;;5089202;28;20044;-82
2022/12/17 13:23:36;;;;;;;34.53;14.55;;;3.00;99.90;;;;;;5072319;28;20036;-82
2022/12/17 13:26:09;;;;;;;35.17;13.80;;;2.70;99.90;;;;;;5055600;28;20044;-82
2022/12/17 13:28:35;;;;;;;32.10;13.57;;;2.70;99.90;;;;;;5089850;28;20362;-82
2022/12/17 13:31:04;;;;;;;35.75;15.10;;;2.70;99.90;;;;;;5075795;28;20033;-84
2022/12/17 13:33:42;;;;;;;36.75;14.93;;;2.60;99.90;;;;;;5092828;28;20044;-84
2022/12/17 13:36:16;;;;;;;32.72;13.57;;;2.40;99.90;;;;;;5076428;28;20569;-84
2022/12/17 13:39:25;;;;;;;28.80;13.00;;;3.90;99.90;;;;;;5092729;28;20093;-83
2022/12/17 13:44:44;;;;;;;36.35;14.27;;;3.00;99.90;;;;;;5146474;27;20043;-85
2022/12/17 13:47:26;;;;;;;38.25;15.38;;;1.90;99.90;;;;;;5128890;27;20485;-83
2022/12/17 13:49:54;;;;;;;31.20;13.23;;;1.80;99.90;;;;;;5115649;27;20046;-85
2022/12/17 13:52:25;;;;;;;38.25;14.15;;;1.70;99.90;;;;;;5124732;27;20069;-85
2022/12/17 13:54:52;;;;;;;40.25;14.57;;;1.60;99.90;;;;;;5136417;27;20034;-85
2022/12/17 13:57:23;;;;;;;38.22;16.25;;;3.20;99.90;;;;;;5136653;27;20042;-85
2022/12/17 13:59:57;;;;;;;36.67;15.60;;;1.40;99.90;;;;;;5136717;27;20129;-84
2022/12/17 14:02:37;;;;;;;36.63;16.53;;;1.50;99.90;;;;;;5118805;27;20757;-84
2022/12/17 14:05:06;;;;;;;35.47;16.27;;;1.30;99.90;;;;;;5119026;27;20698;-84
2022/12/17 14:07:36;;;;;;;39.90;15.43;;;1.20;99.90;;;;;;5132896;27;20050;-84
2022/12/17 14:10:04;;;;;;;34.20;14.37;;;2.60;99.90;;;;;;5108287;28;20031;-84
2022/12/17 14:12:34;;;;;;;37.47;17.20;;;0.30;99.90;;;;;;5133335;28;20114;-84
2022/12/17 14:15:03;;;;;;;36.17;16.80;;;1.00;99.90;;;;;;5129987;28;20450;-84
2022/12/17 14:17:34;;;;;;;34.20;15.80;;;2.70;99.90;;;;;;5099269;28;20043;-84
2022/12/17 14:20:16;;;;;;;42.73;17.37;;;2.40;99.90;;;;;;5098950;28;20125;-86
2022/12/17 14:22:52;;;;;;;42.27;16.83;;;0.70;99.90;;;;;;5137193;27;20053;-86
2022/12/17 14:25:24;;;;;;;40.72;16.35;;;0.60;99.90;;;;;;5123962;27;20526;-86
2022/12/17 14:27:59;;;;;;;39.03;16.50;;;0.40;99.90;;;;;;5103104;27;20388;-86
2022/12/17 14:30:40;;;;;;;49.97;17.73;;;0.40;99.90;;;;;;5135303;27;20427;-84
2022/12/17 14:33:27;;;;;;;39.73;17.40;;;0.30;99.90;;;;;;5102954;27;20050;-84
2022/12/17 14:35:55;;;;;;;38.90;17.53;;;0.10;99.90;;;;;;5124659;27;20039;-83
2022/12/17 14:38:21;;;;;;;34.87;14.63;;;0.10;99.90;;;;;;5106503;27;20102;-84
2022/12/17 14:40:47;;;;;;;42.97;18.30;;;0.00;99.90;;;;;;5120296;27;20151;-83
2022/12/17 14:43:13;;;;;;;47.20;18.47;;;-0.10;99.90;;;;;;5102654;27;20047;-84
2022/12/17 14:51:31;;;;;;;47.50;19.40;;;-0.30;99.90;;;;;;5110075;27;20039;-84
2022/12/17 14:54:13;;;;;;;49.83;19.23;;;-0.40;99.90;;;;;;5123035;27;20434;-86
2022/12/17 14:56:40;;;;;;;50.00;17.83;;;-0.40;99.90;;;;;;5140062;27;20034;-86
2022/12/17 14:59:24;;;;;;;46.47;17.80;;;-0.50;99.90;;;;;;5119344;27;20039;-86
2022/12/17 15:01:54;;;;;;;50.33;19.10;;;-0.60;99.90;;;;;;5123757;27;20039;-86
2022/12/17 15:04:21;;;;;;;46.43;17.57;;;-0.10;99.90;;;;;;5119695;27;20043;-85
2022/12/17 15:06:47;;;;;;;53.33;19.87;;;-0.20;99.90;;;;;;5102825;27;20107;-85
2022/12/17 15:09:13;;;;;;;46.47;19.47;;;-0.80;99.90;;;;;;5085788;27;20043;-84
2022/12/17 15:11:39;;;;;;;46.90;18.97;;;-0.80;99.90;;;;;;5119367;27;20046;-83
2022/12/17 15:14:05;;;;;;;48.83;19.67;;;0.30;99.90;;;;;;5119297;27;20045;-84
2022/12/17 15:16:31;;;;;;;53.00;19.33;;;;;;;;;;5119487;27;20129;-84
2022/12/17 15:18:56;;;;;;;53.57;18.53;;;-1.00;99.90;;;;;;5135639;27;20038;-84
2022/12/17 15:21:24;;;;;;;58.37;21.17;;;-1.00;99.90;;;;;;5139606;27;20107;-84
2022/12/17 15:23:50;;;;;;;55.37;20.03;;;-1.00;99.90;;;;;;5105185;27;20081;-84
2022/12/17 15:26:16;;;;;;;61.03;20.23;;;-1.10;99.90;;;;;;5121941;27;20050;-86
2022/12/17 15:28:43;;;;;;;56.07;20.23;;;-1.10;99.90;;;;;;5093289;27;20034;-87
2022/12/17 15:31:11;;;;;;;47.53;18.63;;;-1.00;99.90;;;;;;5118325;27;20035;-87
2022/12/17 15:33:37;;;;;;;54.90;20.00;;;-1.10;99.90;;;;;;5116722;27;20041;-86
2022/12/17 15:36:03;;;;;;;49.10;20.40;;;-1.20;99.90;;;;;;5102349;27;20035;-86
2022/12/17 15:38:29;;;;;;;49.60;20.33;;;-1.20;99.90;;;;;;5102615;27;20042;-87
2022/12/17 15:40:55;;;;;;;55.90;18.47;;;-0.30;99.90;;;;;;5136573;27;20034;-87
2022/12/17 15:43:21;;;;;;;49.30;18.17;;;-1.30;99.90;;;;;;5105038;27;20055;-83
2022/12/17 15:45:49;;;;;;;44.93;18.17;;;-1.30;99.90;;;;;;5089849;27;20066;-83
2022/12/17 15:48:20;;;;;;;49.47;18.90;;;-1.40;99.90;;;;;;5101736;27;20043;-82
2022/12/17 15:50:47;;;;;;;48.83;18.73;;;-1.40;99.90;;;;;;5101949;27;20039;-82
2022/12/17 15:53:13;;;;;;;43.57;17.83;;;-1.50;99.90;;;;;;5122417;27;20041;-82
2022/12/17 15:55:39;;;;;;;47.60;19.43;;;-1.40;99.90;;;;;;5122113;27;20034;-82
2022/12/17 15:58:10;;;;;;;47.93;19.30;;;-1.50;99.90;;;;;;5112322;27;20035;-82
2022/12/17 16:00:36;;;;;;;46.23;18.10;;;-1.30;99.90;;;;;;5136283;27;20039;-86
2022/12/17 16:03:02;;;;;;;48.63;20.23;;;0.20;99.90;;;;;;5114454;27;20034;-86
2022/12/17 16:05:28;;;;;;;50.23;18.83;;;-1.50;99.90;;;;;;5083819;27;20050;-86
2022/12/17 16:07:57;;;;;;;52.60;19.23;;;-1.60;99.90;;;;;;5076516;27;20110;-86
2022/12/17 16:10:23;;;;;;;53.40;18.67;;;-1.60;99.90;;;;;;5101110;27;20026;-86
2022/12/17 16:12:49;;;;;;;50.03;19.50;;;-1.60;99.90;;;;;;5115518;27;20035;-86
2022/12/17 16:15:15;;;;;;;48.90;18.30;;;;;;;;;;5103512;27;20396;-86
2022/12/17 16:17:41;;;;;;;48.30;18.80;;;-1.70;99.90;;;;;;5119302;27;20098;-83
2022/12/17 16:20:07;;;;;;;55.93;19.73;;;-0.70;99.90;;;;;;5121376;27;20062;-83
2022/12/17 16:22:33;;;;;;;51.57;18.07;;;-1.70;99.90;;;;;;5115660;27;20041;-83
2022/12/17 16:24:59;;;;;;;49.33;16.97;;;-1.70;99.90;;;;;;5105531;27;20118;-84
2022/12/17 16:27:25;;;;;;;54.70;20.87;;;-1.80;99.90;;;;;;5104937;27;20031;-84
2022/12/17 16:29:50;;;;;;;52.00;19.73;;;-1.80;99.90;;;;;;5086389;27;20046;-84
2022/12/17 16:32:16;;;;;;;53.13;17.40;;;-1.80;99.90;;;;;;5120924;27;20030;-84
2022/12/17 16:34:43;;;;;;;48.07;19.37;;;-1.80;99.90;;;;;;5138235;27;20171;-83
2022/12/17 16:37:09;;;;;;;53.03;17.57;;;-1.90;99.90;;;;;;5138204;27;20042;-84
2022/12/17 16:39:34;;;;;;;49.80;18.17;;;-1.90;99.90;;;;;;5136323;27;20042;-84
2022/12/17 16:42:00;;;;;;;55.33;21.27;;;-2.90;99.90;;;;;;5100180;27;20045;-82
2022/12/17 16:44:26;;;;;;;46.23;17.23;;;-1.90;99.90;;;;;;5098885;27;20038;-82
2022/12/17 16:46:52;;;;;;;54.63;19.53;;;-2.00;99.90;;;;;;5114536;27;20061;-82
2022/12/17 16:49:22;;;;;;;56.10;18.90;;;-0.20;99.90;;;;;;5118863;27;20145;-82
2022/12/17 16:51:50;;;;;;;55.40;20.40;;;-2.00;99.90;;;;;;5120877;27;20038;-82
2022/12/17 16:54:19;;;;;;;50.00;17.63;;;-1.10;99.90;;;;;;5116876;27;20043;-82
2022/12/17 16:56:45;;;;;;;53.63;18.77;;;-2.00;99.90;;;;;;5122330;27;20035;-82
2022/12/17 16:59:14;;;;;;;53.40;17.50;;;-2.00;99.90;;;;;;5128954;27;20039;-82
2022/12/17 17:01:45;;;;;;;55.87;18.87;;;-2.10;99.90;;;;;;5084196;27;20078;-82
2022/12/17 17:04:13;;;;;;;47.00;17.97;;;-2.10;99.90;;;;;;5117119;27;20041;-82
2022/12/17 17:06:45;;;;;;;53.60;18.43;;;-2.10;99.90;;;;;;5117100;27;20039;-86
2022/12/17 17:09:12;;;;;;;56.37;20.43;;;-2.10;99.90;;;;;;5108015;27;20066;-86
2022/12/17 17:11:37;;;;;;;55.80;18.27;;;-2.20;99.90;;;;;;5134848;27;20103;-86
2022/12/17 17:14:04;;;;;;;50.20;17.67;;;;;;;;;;5114866;27;20528;-86
2022/12/17 17:16:30;;;;;;;53.87;19.20;;;-2.20;99.90;;;;;;5130331;27;20414;-86
2022/12/17 17:18:55;;;;;;;58.40;20.43;;;-2.20;99.90;;;;;;5098522;27;20045;-83
2022/12/17 17:21:23;;;;;;;51.23;18.57;;;-2.10;99.90;;;;;;5116841;27;20171;-86
2022/12/17 17:23:55;;;;;;;48.67;17.40;;;-2.20;99.90;;;;;;5134020;27;20805;-84
2022/12/17 17:26:21;;;;;;;46.00;18.53;;;-2.30;99.90;;;;;;5117154;27;20376;-84
2022/12/17 17:28:47;;;;;;;47.07;19.07;;;-2.30;99.90;;;;;;5099696;27;20169;-84
2022/12/17 17:31:14;;;;;;;53.53;17.43;;;-1.10;99.90;;;;;;5135849;27;20083;-84
2022/12/17 17:33:47;;;;;;;50.87;19.03;;;-2.30;99.90;;;;;;5100130;27;20046;-84
2022/12/17 17:36:27;;;;;;;50.73;18.23;;;-0.40;99.90;;;;;;5120466;27;20516;-84
2022/12/17 17:38:54;;;;;;;43.07;15.83;;;-2.40;99.90;;;;;;5123776;27;20485;-83
2022/12/17 17:41:22;;;;;;;48.80;16.67;;;-2.40;99.90;;;;;;5120109;27;20126;-83
2022/12/17 17:43:57;;;;;;;48.23;17.77;;;-0.90;99.90;;;;;;5130639;27;20047;-83
2022/12/17 17:46:24;;;;;;;49.97;17.85;;;-2.40;99.90;;;;;;5116249;27;20043;-83
2022/12/17 17:48:50;;;;;;;53.83;19.13;;;-2.50;99.90;;;;;;5116366;27;20046;-83
2022/12/17 17:51:22;;;;;;;51.20;17.50;;;-2.50;99.90;;;;;;5099176;27;20038;-82
2022/12/17 17:53:50;;;;;;;54.50;18.77;;;-2.50;99.90;;;;;;5122459;27;20046;-82
2022/12/17 17:56:19;;;;;;;55.43;18.30;;;-2.60;99.90;;;;;;5115983;27;20434;-84
2022/12/17 17:58:50;;;;;;;50.33;19.13;;;-2.60;99.90;;;;;;5114547;27;20042;-84
2022/12/17 18:01:20;;;;;;;53.20;19.30;;;-2.60;99.90;;;;;;5113188;27;20045;-85
2022/12/17 18:03:46;;;;;;;51.23;16.93;;;-2.60;99.90;;;;;;5114795;28;20035;-85
2022/12/17 18:06:13;;;;;;;58.20;18.20;;;-2.60;99.90;;;;;;5093042;27;20087;-85
2022/12/17 18:08:39;;;;;;;55.63;19.73;;;-2.60;99.90;;;;;;5126646;27;20087;-84
2022/12/17 18:11:07;;;;;;;47.00;16.80;;;-2.70;99.90;;;;;;5119032;27;20046;-84
2022/12/17 18:13:54;;;;;;;56.70;18.43;;;-2.70;99.90;;;;;;5113052;28;20118;-84
2022/12/17 18:16:26;;;;;;;50.17;17.90;;;-2.70;99.90;;;;;;5122009;28;20077;-84
2022/12/17 18:18:55;;;;;;;59.17;18.77;;;-2.70;99.90;;;;;;5116930;28;20384;-84
2022/12/17 18:21:21;;;;;;;53.17;20.00;;;;;;;;;;5116143;28;20047;-84
2022/12/17 18:23:47;;;;;;;54.93;19.07;;;-2.70;99.90;;;;;;5091320;27;20039;-84
2022/12/17 18:26:14;;;;;;;51.03;16.77;;;-1.00;99.90;;;;;;5118723;27;20541;-84
2022/12/17 18:28:40;;;;;;;55.83;18.43;;;-2.80;99.90;;;;;;5132127;27;20096;-84
2022/12/17 18:31:32;;;;;;;50.93;17.67;;;-2.80;99.90;;;;;;5109865;27;20035;-84
2022/12/17 18:34:01;;;;;;;54.27;19.47;;;-2.80;99.90;;;;;;5103092;27;20111;-84
2022/12/17 18:36:38;;;;;;;59.63;17.70;;;-2.80;99.90;;;;;;5135500;27;20054;-84
2022/12/17 18:39:10;;;;;;;59.70;19.47;;;-2.80;99.90;;;;;;5127021;27;20042;-84
2022/12/17 18:44:22;;;;;;;50.07;17.50;;;-2.90;99.90;;;;;;5122595;28;20523;-84
2022/12/17 18:46:48;;;;;;;59.07;19.37;;;-2.90;99.90;;;;;;5105035;27;20062;-82
2022/12/17 18:49:15;;;;;;;53.57;19.03;;;-1.40;99.90;;;;;;5113462;28;20126;-82
2022/12/17 18:51:43;;;;;;;50.90;16.90;;;-2.90;99.90;;;;;;5110446;27;20465;-82
2022/12/17 18:54:15;;;;;;;54.43;17.63;;;-3.10;99.90;;;;;;5128180;28;20042;-82
2022/12/17 18:56:41;;;;;;;47.97;18.17;;;-2.50;99.90;;;;;;5121420;27;20492;-82
2022/12/17 18:59:07;;;;;;;56.63;19.33;;;-1.20;99.90;;;;;;5117296;27;20542;-82
2022/12/17 19:01:35;;;;;;;51.70;18.60;;;-2.30;99.90;;;;;;5118386;27;20697;-82
2022/12/17 19:04:04;;;;;;;55.00;17.60;;;-3.10;99.90;;;;;;5111381;27;20387;-85
2022/12/17 19:06:32;;;;;;;50.90;17.37;;;-3.10;99.90;;;;;;5109911;27;20035;-85
2022/12/17 19:08:58;;;;;;;56.77;19.33;;;-1.20;99.90;;;;;;5131871;27;20510;-85
2022/12/17 19:11:25;;;;;;;56.80;18.10;;;-1.60;99.90;;;;;;5130996;27;20037;-85
2022/12/17 19:13:51;;;;;;;49.07;18.40;;;-1.10;99.90;;;;;;5117515;27;20049;-85
2022/12/17 19:16:19;;;;;;;52.83;16.70;;;-3.10;99.90;;;;;;5114588;27;20039;-85
2022/12/17 19:18:51;;;;;;;48.60;18.00;;;-3.10;99.90;;;;;;5117679;27;20034;-85
2022/12/17 19:21:17;;;;;;;47.37;15.70;;;-3.10;99.90;;;;;;5111255;27;20118;-84
2022/12/17 19:23:43;;;;;;;46.83;16.77;;;-3.10;99.90;;;;;;5123992;27;20168;-84
2022/12/17 19:26:15;;;;;;;46.90;18.03;;;-3.20;99.90;;;;;;5123407;27;20062;-84
2022/12/17 19:28:44;;;;;;;49.20;16.43;;;-2.60;99.90;;;;;;5118729;27;20046;-85
2022/12/17 19:31:10;;;;;;;46.57;17.90;;;-1.60;99.90;;;;;;5133166;27;20035;-84
2022/12/17 19:33:36;;;;;;;54.47;19.17;;;-3.20;99.90;;;;;;5113262;27;20396;-84
2022/12/17 19:36:09;;;;;;;50.33;17.83;;;-3.20;99.90;;;;;;5128186;27;20373;-84
2022/12/17 19:38:35;;;;;;;44.23;16.43;;;-3.20;99.90;;;;;;5122261;27;20117;-84
2022/12/17 19:41:15;;;;;;;49.93;18.33;;;-3.30;99.90;;;;;;5133790;27;20484;-83
2022/12/17 19:43:42;;;;;;;51.67;16.87;;;-3.20;99.90;;;;;;5123314;27;20048;-84
2022/12/17 19:46:11;;;;;;;51.43;18.77;;;-1.30;99.90;;;;;;5114691;28;20042;-84
2022/12/17 19:48:38;;;;;;;52.50;16.53;;;-3.30;99.90;;;;;;5092389;28;20035;-84
2022/12/17 19:51:06;;;;;;;51.93;18.20;;;-3.30;99.90;;;;;;5114045;28;20650;-84
2022/12/17 19:53:33;;;;;;;51.47;16.90;;;-3.30;99.90;;;;;;5080771;28;20047;-82
2022/12/17 19:56:12;;;;;;;47.93;17.43;;;-3.30;99.90;;;;;;5098048;28;20047;-82
2022/12/17 19:58:39;;;;;;;51.40;16.80;;;-3.40;99.90;;;;;;5107629;28;20031;-82
2022/12/17 20:01:07;;;;;;;55.83;18.33;;;-2.30;99.90;;;;;;5097845;28;20078;-82
2022/12/17 20:03:34;;;;;;;52.33;17.83;;;-4.90;99.90;;;;;;5113244;28;20450;-82
2022/12/17 20:06:00;;;;;;;48.37;16.40;;;-3.40;99.90;;;;;;5114512;28;20042;-82
2022/12/17 20:08:27;;;;;;;46.03;15.40;;;-3.50;99.90;;;;;;5097841;28;20055;-85
2022/12/17 20:10:53;;;;;;;54.23;17.53;;;-3.50;99.90;;;;;;5080821;28;20499;-84
2022/12/17 20:13:18;;;;;;;55.77;18.23;;;-3.50;99.90;;;;;;5113778;28;20047;-84
2022/12/17 20:15:44;;;;;;;47.97;16.17;;;-3.50;99.90;;;;;;5092674;28;20035;-84
2022/12/17 20:18:11;;;;;;;50.93;16.07;;;-3.60;99.90;;;;;;5080459;28;20054;-84
2022/12/17 20:20:37;;;;;;;45.80;16.13;;;-3.50;99.90;;;;;;5079380;28;20089;-84
2022/12/17 20:23:02;;;;;;;48.83;17.17;;;-3.50;99.90;;;;;;5094372;28;20477;-84
2022/12/17 20:25:28;;;;;;;55.87;16.63;;;-3.50;99.90;;;;;;5097010;28;20378;-84
2022/12/17 20:27:54;;;;;;;62.87;20.37;;;-3.40;99.90;;;;;;5114179;28;20027;-84
2022/12/17 20:30:21;;;;;;;46.83;16.30;;;-3.40;99.90;;;;;;5097253;28;20049;-84
2022/12/17 20:32:46;;;;;;;46.87;18.10;;;-3.40;99.90;;;;;;5111503;28;20044;-84
2022/12/17 20:35:12;;;;;;;47.53;17.07;;;-2.20;99.90;;;;;;5060314;28;20142;-84
2022/12/17 20:37:38;;;;;;;49.00;16.53;;;-3.40;99.90;;;;;;5096819;28;20406;-84
2022/12/17 20:40:05;;;;;;;47.30;16.50;;;-3.40;99.90;;;;;;5096876;28;20082;-84
2022/12/17 20:42:30;;;;;;;51.10;17.53;;;-3.40;99.90;;;;;;5097186;28;20122;-85
2022/12/17 20:44:56;;;;;;;54.10;18.90;;;-3.40;99.90;;;;;;5091407;28;20472;-85
2022/12/17 20:47:22;;;;;;;44.53;16.83;;;-3.30;99.90;;;;;;5089810;28;20141;-85
2022/12/17 20:49:48;;;;;;;55.63;19.50;;;-3.30;99.90;;;;;;5095996;28;20123;-85
2022/12/17 20:52:17;;;;;;;46.47;18.03;;;-3.20;99.90;;;;;;5076696;28;20053;-85
2022/12/17 20:54:43;;;;;;;54.97;18.73;;;-1.80;99.90;;;;;;5077249;28;20032;-85
2022/12/17 20:57:09;;;;;;;50.43;16.73;;;;;;;;;;5096621;28;20058;-85
2022/12/17 20:59:35;;;;;;;54.93;19.27;;;-3.20;99.90;;;;;;5096368;28;20392;-84
2022/12/17 21:02:01;;;;;;;45.50;18.03;;;-3.30;99.90;;;;;;5058670;28;20046;-84
2022/12/17 21:04:27;;;;;;;55.80;17.67;;;-3.60;99.90;;;;;;5113517;28;20038;-84
2022/12/17 21:06:52;;;;;;;47.97;16.37;;;-3.40;99.90;;;;;;5111782;28;20543;-84
2022/12/17 21:09:19;;;;;;;50.87;17.47;;;-0.90;99.90;;;;;;5097042;28;20508;-84
2022/12/17 21:11:45;;;;;;;51.60;17.03;;;-3.40;99.90;;;;;;5096366;28;20478;-84
2022/12/17 21:14:14;;;;;;;55.80;17.90;;;-3.40;99.90;;;;;;5111220;28;20043;-84
2022/12/17 21:16:41;;;;;;;54.23;17.67;;;-3.40;99.90;;;;;;5096368;28;20055;-82
2022/12/17 21:19:11;;;;;;;50.33;18.43;;;-3.40;99.90;;;;;;5100695;28;20486;-82
2022/12/17 21:21:37;;;;;;;45.50;17.27;;;-3.20;99.90;;;;;;5096114;28;20078;-82
2022/12/17 21:24:04;;;;;;;45.37;18.10;;;-3.50;99.90;;;;;;5079228;28;20036;-81
2022/12/17 21:26:35;;;;;;;52.03;18.83;;;-3.50;99.90;;;;;;5075356;28;20044;-82
2022/12/17 21:29:02;;;;;;;46.50;17.37;;;-3.40;99.90;;;;;;5110520;28;20043;-82
2022/12/17 21:31:31;;;;;;;44.57;15.17;;;-3.50;99.90;;;;;;5095197;28;20105;-82
2022/12/17 21:34:00;;;;;;;57.43;17.83;;;-1.70;99.90;;;;;;5113404;28;20067;-84
2022/12/17 21:36:27;;;;;;;55.47;17.40;;;-3.50;99.90;;;;;;5112838;28;20047;-84
2022/12/17 21:38:53;;;;;;;48.97;17.07;;;-3.50;99.90;;;;;;5111128;28;20036;-84
2022/12/17 21:41:22;;;;;;;49.40;17.07;;;-3.50;99.90;;;;;;5095670;28;20075;-84
2022/12/17 21:43:53;;;;;;;47.40;17.60;;;-1.40;99.90;;;;;;5116593;27;20055;-84
2022/12/17 21:46:19;;;;;;;43.87;17.47;;;-1.50;99.90;;;;;;5085538;27;20039;-84
2022/12/17 21:48:45;;;;;;;50.90;17.37;;;-3.50;99.90;;;;;;5099915;28;20038;-82
2022/12/17 21:51:12;;;;;;;50.23;18.07;;;-1.90;99.90;;;;;;5063777;28;20082;-82
2022/12/17 21:53:41;;;;;;;50.43;19.07;;;-3.50;99.90;;;;;;5080350;28;20084;-82
2022/12/17 21:56:15;;;;;;;50.40;17.33;;;-3.40;99.90;;;;;;5110930;27;20039;-82
2022/12/17 21:58:45;;;;;;;46.50;17.37;;;-3.40;99.90;;;;;;5096091;28;20050;-82
2022/12/17 22:01:12;;;;;;;46.57;17.20;;;-3.40;99.90;;;;;;5095128;28;20035;-82
2022/12/17 22:03:38;;;;;;;54.17;18.13;;;-3.90;99.90;;;;;;5102264;28;20118;-82
2022/12/17 22:06:11;;;;;;;44.70;15.40;;;-1.80;99.90;;;;;;5099905;28;20038;-84
2022/12/17 22:08:37;;;;;;;53.77;19.23;;;-3.50;99.90;;;;;;5112668;28;20121;-84
2022/12/17 22:11:35;;;;;;;43.70;16.13;;;-3.60;99.90;;;;;;5127280;27;20027;-84
2022/12/17 22:14:17;;;;;;;49.93;18.73;;;-3.60;99.90;;;;;;5098062;28;20083;-84
2022/12/17 22:16:51;;;;;;;56.90;17.83;;;-3.50;99.90;;;;;;5100737;28;20051;-84
2022/12/17 22:19:26;;;;;;;46.43;16.23;;;-1.90;99.90;;;;;;5117726;28;20485;-84
2022/12/17 22:21:54;;;;;;;60.80;19.80;;;-3.60;99.90;;;;;;5106868;28;20398;-84
2022/12/17 22:24:27;;;;;;;54.60;17.67;;;-3.50;99.90;;;;;;5081667;28;20039;-84
2022/12/17 22:26:59;;;;;;;47.83;17.97;;;-3.20;99.90;;;;;;5106382;28;20046;-84
2022/12/17 22:35:11;;;;;;;56.27;18.70;;;-3.40;99.90;;;;;;5110532;28;20040;-83
2022/12/17 22:37:40;;;;;;;55.10;17.83;;;-3.50;99.90;;;;;;5115647;28;20039;-84
2022/12/17 22:40:09;;;;;;;48.60;18.10;;;-3.90;99.90;;;;;;5097473;28;20455;-84
2022/12/17 22:45:29;;;;;;;46.57;17.03;;;-3.50;99.90;;;;;;5101731;28;20086;-84
2022/12/17 22:47:55;;;;;;;44.03;17.10;;;-2.80;99.90;;;;;;5099342;28;20074;-84
2022/12/17 22:50:21;;;;;;;51.93;18.43;;;-3.40;99.90;;;;;;5087691;28;20071;-83
2022/12/17 22:52:47;;;;;;;47.87;18.50;;;-3.30;99.90;;;;;;5104451;28;20040;-84
2022/12/17 22:55:13;;;;;;;50.47;16.87;;;;;;;;;;5068995;28;20058;-84
2022/12/17 22:57:39;;;;;;;47.20;18.17;;;-3.90;99.90;;;;;;5093231;28;20047;-85
2022/12/17 23:00:30;;;;;;;51.30;17.93;;;-3.40;99.90;;;;;;5113592;28;20032;-85
2022/12/17 23:02:56;;;;;;;49.37;18.13;;;-2.10;99.90;;;;;;5115361;28;20040;-85
2022/12/17 23:05:26;;;;;;;50.90;17.33;;;-3.40;99.90;;;;;;5081118;28;20085;-85
2022/12/17 23:07:52;;;;;;;48.37;17.00;;;-3.40;99.90;;;;;;5094187;28;20090;-85
2022/12/17 23:10:19;;;;;;;48.50;17.07;;;-3.60;99.90;;;;;;5091291;28;20429;-85
2022/12/17 23:12:50;;;;;;;48.60;17.50;;;-3.10;99.90;;;;;;5064637;28;20362;-84
2022/12/17 23:15:24;;;;;;;50.53;17.97;;;-3.40;99.90;;;;;;5072333;28;20898;-83
2022/12/17 23:17:51;;;;;;;50.67;16.77;;;-3.60;99.90;;;;;;5105961;28;20043;-83
2022/12/17 23:20:17;;;;;;;44.17;15.33;;;-2.70;99.90;;;;;;5075124;28;20044;-84
2022/12/17 23:22:43;;;;;;;45.90;17.27;;;-4.30;99.90;;;;;;5061922;28;20040;-84
2022/12/17 23:25:13;;;;;;;47.27;17.40;;;-2.20;99.90;;;;;;5067206;28;20088;-84
2022/12/17 23:28:16;;;;;;;37.23;15.23;;;-2.60;99.90;;;;;;5111822;28;20039;-84
2022/12/17 23:30:45;;;;;;;48.07;17.10;;;;;;;;;;5076418;28;20607;-85
2022/12/17 23:33:11;;;;;;;46.07;16.87;;;-3.40;99.90;;;;;;5089716;28;20115;-85
2022/12/17 23:35:37;;;;;;;49.13;16.53;;;;;;;;;;5093883;28;20119;-85
2022/12/17 23:38:03;;;;;;;51.40;16.70;;;-3.50;99.90;;;;;;5078173;28;20044;-85
2022/12/17 23:40:29;;;;;;;54.97;17.57;;;-3.50;99.90;;;;;;5061775;28;20047;-85
2022/12/17 23:42:56;;;;;;;44.83;17.00;;;;;;;;;;5061726;28;20089;-85
2022/12/17 23:45:22;;;;;;;49.50;16.00;;;-3.50;99.90;;;;;;5116955;27;20062;-83
2022/12/17 23:47:48;;;;;;;44.90;16.03;;;-3.50;99.90;;;;;;5085236;27;20121;-84
2022/12/17 23:50:13;;;;;;;46.97;16.53;;;-3.40;99.90;;;;;;5101276;27;20519;-83
2022/12/17 23:52:39;;;;;;;49.07;17.20;;;-3.60;99.90;;;;;;5139471;27;20293;-83
2022/12/17 23:55:06;;;;;;;45.00;16.80;;;-3.60;99.90;;;;;;5104423;27;20780;-84
2022/12/17 23:57:32;;;;;;;48.70;17.10;;;-3.60;99.90;;;;;;5118306;27;20050;-83
2022/12/17 23:59:57;;;;;;;44.53;16.37;;;-3.70;99.90;;;;;;5069012;27;20122;-83
